Lulu Pass Weather Station

This weather station provides temperature, relative humidity (RH), wind speed, gust or max wind speed, and wind direction at 10014ft near Lulu Pass at the head of Fisher Creek. This data can be used with temperature and precipitation data from the Fisher Creek SNOTEL site.

This weather station was purchased by the Friends of the Avalanche Center.

If the data has not been updated recently you can view it directly on datagarrison.com

Elevation
10014ft
Jump to table bottom
Date Time Temperature
deg F
RH, % Wind Speed Wind Gust Wind Direction
10/21/21 08:00 26.5 96 10 24 W - 250
10/21/21 07:00 27.1 96 9 23 SW - 236
10/21/21 06:00 27.5 96 9 20 W - 257
10/21/21 05:00 27.6 93 7 22 SW - 237
10/21/21 04:00 28.0 91 7 17 SW - 229
10/21/21 03:00 28.2 91 7 16 SW - 223
10/21/21 02:00 28.2 91 7 21 SW - 232
10/21/21 01:00 28.6 89 9 20 SW - 216
10/21/21 00:00 28.5 88 8 21 SW - 230
10/20/21 23:00 28.6 86 9 23 SW - 232
10/20/21 22:00 28.9 84 10 28 SW - 223
10/20/21 21:00 29.2 83 9 22 SW - 226
10/20/21 20:00 29.8 81 11 25 SW - 229
10/20/21 19:00 29.7 81 9 24 SW - 232
10/20/21 18:00 30.5 76 7 25 SW - 234
10/20/21 17:00 32.9 67 9 19 SW - 240
10/20/21 16:00 37.0 68 6 18 SW - 227
10/20/21 15:00 32.3 74 8 21 SW - 232
10/20/21 14:00 32.6 77 9 25 SW - 209
10/20/21 13:00 30.2 82 8 19 SW - 211
10/20/21 12:00 29.7 82 9 19 S - 185
10/20/21 11:00 29.8 86 8 18 S - 191
10/20/21 10:00 28.5 91 6 16 S - 192
10/20/21 09:00 27.5 92 5 12 S - 183
10/20/21 08:00 26.6 90 5 9 SE - 153
10/20/21 07:00 26.4 88 3 10 SE - 157
10/20/21 06:00 26.7 85 5 12 S - 194
10/20/21 05:00 26.7 71 6 14 S - 173
10/20/21 04:00 28.1 66 6 9 SE - 132
10/20/21 03:00 27.3 69 4 8 SE - 128
10/20/21 02:00 26.7 70 4 9 SE - 119
10/20/21 01:00 27.2 68 3 7 NE - 56
10/20/21 00:00 27.4 70 1 5 E - 84
10/19/21 23:00 27.9 67 3 9 NE - 37
10/19/21 22:00 26.9 68 2 6 N - 338
10/19/21 21:00 27.6 66 2 6 N - 355
10/19/21 20:00 28.3 65 2 6 N - 10
10/19/21 19:00 29.4 63 4 10 NE - 53
10/19/21 18:00 30.9 59 5 12 NE - 41
10/19/21 17:00 32.4 56 6 14 NE - 31
10/19/21 16:00 33.0 54 8 16 NE - 34
10/19/21 15:00 33.1 58 6 19 NE - 35
10/19/21 14:00 30.9 80 3 9 N - 350
10/19/21 13:00 26.7 91 2 5 W - 292
10/19/21 12:00 24.7 68 5 19 N - 15
10/19/21 11:00 30.3 56 11 22 NE - 34
10/19/21 10:00 30.3 54 10 22 NE - 37
10/19/21 09:00 29.8 56 12 26 NE - 45
10/19/21 08:00 29.2 56 11 30 NE - 35
10/19/21 07:00 29.4 60 10 27 NE - 41